Time;durP1;ratioP1;P1;durP2;ratioP2;P2;SDS_P1;SDS_P2;PMS_P1;PMS_P2;Temp;Humidity;BMP_temperature;BMP_pressure;BME280_temperature;BME280_humidity;BME280_pressure;Samples;Min_cycle;Max_cycle;Signal;HPM_P1;HPM_P2
2023/02/21 02:15:29;;;;;;;84.00;41.67;;;;;;;9.86;64.13;101423.97;4996927;28;20057;-71
2023/02/21 02:18:37;;;;;;;58.53;30.20;;;;;;;9.97;64.18;101423.84;4905346;29;20036;-72
2023/02/21 02:21:35;;;;;;;87.85;42.30;;;;;;;10.18;63.65;101422.47;4912881;29;20056;-71
2023/02/21 02:24:40;;;;;;;78.65;40.25;;;;;;;10.16;63.10;101420.03;4993944;28;20046;-71
2023/02/21 02:27:55;;;;;;;77.20;41.45;;;;;;;10.28;61.82;101414.16;4990346;28;20034;-71
2023/02/21 02:31:23;;;;;;;69.85;37.65;;;;;;;10.25;61.34;101426.44;4993559;28;20289;-71
2023/02/21 02:34:50;;;;;;;54.60;32.25;;;;;;;9.86;61.40;101409.59;4995283;28;20046;-71
2023/02/21 02:38:03;;;;;;;56.05;27.13;;;;;;;9.84;60.24;101411.81;4998670;28;20045;-71
2023/02/21 02:41:11;;;;;;;46.72;26.45;;;;;;;9.31;62.72;101408.41;4994664;28;20412;-71
2023/02/21 02:44:14;;;;;;;42.70;26.05;;;;;;;9.31;62.34;101406.50;4982402;28;20043;-71
2023/02/21 02:47:12;;;;;;;44.83;28.73;;;;;;;9.19;63.51;101403.41;4999214;28;20038;-71
2023/02/21 02:50:06;;;;;;;57.17;30.15;;;;;;;9.49;64.17;101402.22;5010255;28;20042;-71
2023/02/21 02:53:02;;;;;;;;;;;;;;;9.28;63.83;101398.97;5006435;28;20049;-71
2023/02/21 02:56:12;;;;;;;45.85;26.45;;;;;;;9.17;63.67;101397.44;4998322;28;19913;-71
2023/02/21 02:59:15;;;;;;;45.65;27.15;;;;;;;9.24;63.83;101392.50;5000112;28;20046;-72
2023/02/21 03:02:17;;;;;;;44.10;25.95;;;;;;;9.24;64.61;101387.06;5012466;28;20041;-71
2023/02/21 03:05:15;;;;;;;50.78;30.63;;;;;;;9.29;64.87;101394.34;4998520;28;20416;-71
2023/02/21 03:08:17;;;;;;;59.35;31.70;;;;;;;9.22;65.20;101394.69;5016854;28;20045;-71
2023/02/21 03:11:14;;;;;;;72.55;39.15;;;;;;;8.96;66.09;101383.31;5014689;28;20060;-71
2023/02/21 03:14:13;;;;;;;84.18;43.72;;;;;;;8.96;65.84;101390.63;5003629;28;20049;-71
2023/02/21 03:17:09;;;;;;;73.47;37.72;;;;;;;9.04;65.50;101378.34;5014612;28;20415;-71
2023/02/21 03:20:08;;;;;;;61.55;31.83;;;;;;;8.99;64.29;101373.78;5009343;28;20423;-71
2023/02/21 03:23:06;;;;;;;73.78;35.10;;;;;;;8.52;65.99;101379.97;5016081;28;20502;-71
2023/02/21 03:26:03;;;;;;;78.70;39.30;;;;;;;8.59;66.29;101378.53;5004859;28;20038;-71
2023/02/21 03:28:56;;;;;;;88.78;42.58;;;;;;;8.65;65.52;101379.28;5001648;28;20414;-71
2023/02/21 03:31:55;;;;;;;79.78;38.08;;;;;;;8.49;66.20;101375.09;4988787;28;20042;-71
2023/02/21 03:34:50;;;;;;;73.55;35.22;;;;;;;8.44;66.63;101375.13;5003616;28;20049;-71
2023/02/21 03:37:47;;;;;;;75.37;36.97;;;;;;;8.67;65.53;101379.00;5001200;28;20507;-71
2023/02/21 03:40:39;;;;;;;63.53;33.63;;;;;;;8.46;64.72;101370.25;5003679;28;20434;-71
2023/02/21 03:43:31;;;;;;;85.60;39.05;;;;;;;8.59;64.12;101366.88;5000491;28;20041;-72
2023/02/21 03:46:22;;;;;;;59.45;33.95;;;;;;;8.31;65.26;101363.06;4999310;28;20411;-72
2023/02/21 03:49:12;;;;;;;70.43;36.58;;;;;;;8.59;65.00;101364.97;5003569;28;20045;-71
2023/02/21 03:52:06;;;;;;;80.38;36.45;;;;;;;8.76;64.69;101363.72;5000905;28;20041;-71
2023/02/21 03:55:01;;;;;;;72.93;35.42;;;;;;;9.00;63.53;101364.53;5019129;28;20491;-72
2023/02/21 03:57:55;;;;;;;69.75;34.78;;;;;;;9.01;62.84;101368.88;5001951;28;20050;-72
2023/02/21 04:00:50;;;;;;;59.47;33.80;;;;;;;8.94;63.49;101368.41;4999336;28;20049;-71
2023/02/21 04:03:44;;;;;;;53.83;26.60;;;;;;;8.59;63.81;101358.72;5014295;28;20049;-72
2023/02/21 04:06:37;;;;;;;74.32;35.08;;;;;;;8.71;64.21;101359.16;5001261;28;20415;-72
2023/02/21 04:09:31;;;;;;;55.85;26.92;;;;;;;8.81;63.98;101361.78;4997762;28;20038;-71
2023/02/21 04:12:25;;;;;;;63.45;33.30;;;;;;;8.78;64.26;101364.25;5001686;28;20049;-72
2023/02/21 04:15:18;;;;;;;61.65;34.10;;;;;;;9.00;62.81;101370.78;4999841;28;20045;-71
2023/02/21 04:18:12;;;;;;;70.72;36.03;;;;;;;6.38;68.99;101370.41;5002934;28;20045;-71
2023/02/21 04:21:07;;;;;;;69.55;32.92;;;;;;;5.02;76.59;101370.88;4981207;28;20672;-71
2023/02/21 04:24:03;;;;;;;71.53;36.92;;;;;;;5.16;78.57;101372.81;4979106;28;20042;-71
2023/02/21 04:26:57;;;;;;;70.27;28.67;;;;;;;5.03;81.42;101370.59;4987832;28;20038;-71
2023/02/21 04:29:53;;;;;;;85.45;39.85;;;;;;;5.07;81.97;101377.09;4997518;28;20522;-71
2023/02/21 04:32:48;;;;;;;64.63;32.70;;;;;;;5.59;82.09;101368.91;4988640;28;20038;-71
2023/02/21 04:35:43;;;;;;;68.95;31.90;;;;;;;6.38;80.70;101371.22;4999981;28;20052;-71
2023/02/21 04:38:44;;;;;;;88.90;43.65;;;;;;;6.54;78.75;101363.91;4999257;28;20041;-73
2023/02/21 04:41:38;;;;;;;86.38;43.05;;;;;;;6.94;73.71;101349.50;5017459;28;20526;-73
2023/02/21 04:44:34;;;;;;;70.47;36.58;;;;;;;6.82;74.11;101351.69;5000709;28;20491;-73
2023/02/21 04:47:26;;;;;;;59.40;34.53;;;;;;;7.17;70.37;101348.84;5018962;28;20041;-73
2023/02/21 04:50:20;;;;;;;59.95;33.80;;;;;;;7.66;68.83;101350.78;5016571;28;20045;-73
2023/02/21 04:53:15;;;;;;;57.53;31.55;;;;;;;8.02;67.88;101356.78;5016843;28;20038;-73
2023/02/21 04:56:09;;;;;;;54.22;30.60;;;;;;;8.25;66.83;101352.50;5017927;28;20407;-73
2023/02/21 04:58:59;;;;;;;48.47;28.38;;;;;;;8.12;65.88;101343.97;5015782;28;20045;-73
2023/02/21 05:01:51;;;;;;;59.65;31.55;;;;;;;8.06;64.82;101344.28;5021425;28;20041;-74
2023/02/21 05:04:46;;;;;;;42.42;24.27;;;;;;;7.52;66.55;101344.34;5017629;28;20038;-73
2023/02/21 05:07:39;;;;;;;63.35;34.05;;;;;;;7.85;66.76;101353.63;5014894;28;20037;-73
2023/02/21 05:10:31;;;;;;;66.70;34.25;;;;;;;8.00;66.02;101351.63;5018119;28;20042;-74
2023/02/21 05:13:21;;;;;;;71.78;35.13;;;;;;;7.86;67.59;101339.00;5015482;28;20045;-73
2023/02/21 05:16:13;;;;;;;69.05;35.90;;;;;;;8.00;67.72;101338.09;5019418;28;20053;-73
2023/02/21 05:19:08;;;;;;;74.18;38.92;;;;;;;8.18;67.08;101339.28;5016557;28;20045;-73
2023/02/21 05:21:59;;;;;;;70.20;36.63;;;;;;;7.97;67.54;101338.66;5007847;28;20037;-73
2023/02/21 05:24:52;;;;;;;66.38;35.30;;;;;;;7.69;67.37;101334.78;5012998;28;20053;-73
2023/02/21 05:27:45;;;;;;;70.15;36.30;;;;;;;7.60;68.47;101332.94;5008807;28;20029;-73
2023/02/21 05:30:34;;;;;;;64.95;34.65;;;;;;;7.87;68.13;101329.81;5007182;28;20042;-73
2023/02/21 05:33:29;;;;;;;69.88;35.58;;;;;;;7.95;67.61;101321.88;5015340;28;20063;-73
2023/02/21 05:36:21;;;;;;;67.80;35.95;;;;;;;8.01;68.26;101325.38;5016117;28;20052;-73
2023/02/21 05:39:15;;;;;;;68.18;36.03;;;;;;;8.05;66.71;101327.22;5019018;28;20041;-73
2023/02/21 05:42:10;;;;;;;65.90;34.37;;;;;;;8.20;66.91;101320.88;5007398;28;20411;-73
2023/02/21 05:45:01;;;;;;;64.73;34.07;;;;;;;8.22;65.91;101331.41;5012981;28;20041;-73
2023/02/21 05:47:57;;;;;;;64.15;34.72;;;;;;;8.25;67.07;101328.13;5013928;28;20033;-73
2023/02/21 05:50:51;;;;;;;59.83;32.63;;;;;;;8.14;66.93;101325.50;5011604;28;20041;-73
2023/02/21 05:53:43;;;;;;;63.00;32.00;;;;;;;8.15;66.12;101323.63;5012353;28;20053;-73
2023/02/21 05:56:40;;;;;;;58.15;30.80;;;;;;;7.73;66.75;101324.19;5017227;28;20045;-73
2023/02/21 05:59:34;;;;;;;66.43;34.28;;;;;;;7.79;67.30;101323.06;5012571;28;20060;-73
2023/02/21 06:02:29;;;;;;;53.50;26.73;;;;;;;7.84;66.21;101325.75;5015627;28;20038;-73
2023/02/21 06:05:25;;;;;;;66.60;31.87;;;;;;;7.68;67.47;101327.75;5014192;28;20045;-72
2023/02/21 06:08:17;;;;;;;;;;;;;;;7.30;68.91;101325.81;5018175;28;20696;-72
2023/02/21 06:11:11;;;;;;;70.80;33.08;;;;;;;7.17;69.05;101337.22;5016453;28;19913;-73
2023/02/21 06:14:07;;;;;;;68.40;34.58;;;;;;;7.14;69.63;101330.47;5014302;28;20049;-73
2023/02/21 06:17:02;;;;;;;71.22;33.35;;;;;;;7.26;68.58;101330.16;5017628;28;20057;-73
2023/02/21 06:19:58;;;;;;;57.30;30.83;;;;;;;7.18;68.49;101328.84;5015527;28;20038;-73
2023/02/21 06:22:48;;;;;;;67.75;33.42;;;;;;;7.19;68.61;101335.06;5015510;28;20038;-73
2023/02/21 06:25:40;;;;;;;75.95;35.35;;;;;;;7.49;67.26;101334.09;5015922;28;20037;-73
2023/02/21 06:28:35;;;;;;;84.65;37.83;;;;;;;7.43;67.45;101336.00;5013365;28;20037;-73
2023/02/21 06:31:29;;;;;;;77.65;42.17;;;;;;;7.40;67.96;101335.78;5017127;28;20419;-73
2023/02/21 06:34:24;;;;;;;72.28;38.67;;;;;;;7.07;68.96;101343.47;5015257;28;20042;-73
2023/02/21 06:37:36;;;;;;;73.80;36.92;;;;;;;6.96;69.92;101343.81;5017886;28;20069;-73
2023/02/21 06:40:30;;;;;;;143.40;63.83;;;;;;;6.93;70.13;101347.06;5015324;28;20049;-73
2023/02/21 06:43:22;;;;;;;73.13;32.30;;;;;;;7.08;68.31;101347.00;5016711;28;20046;-72
2023/02/21 06:46:20;;;;;;;98.35;51.33;;;;;;;7.34;68.59;101361.22;5020022;28;20042;-73
2023/02/21 06:49:12;;;;;;;92.93;46.22;;;;;;;7.51;67.04;101354.38;5017967;28;20123;-73
2023/02/21 06:52:04;;;;;;;82.35;38.70;;;;;;;7.50;67.13;101363.59;5020995;28;20053;-72
2023/02/21 06:54:54;;;;;;;80.22;37.58;;;;;;;7.65;66.64;101362.69;5019282;28;20041;-72
2023/02/21 06:57:49;;;;;;;70.82;36.42;;;;;;;7.84;66.54;101370.97;5017143;28;20042;-72
2023/02/21 07:00:39;;;;;;;53.57;27.23;;;;;;;7.76;66.11;101371.56;5019965;28;20118;-73
2023/02/21 07:03:33;;;;;;;76.57;38.15;;;;;;;7.56;66.55;101367.91;5014745;28;20507;-72
2023/02/21 07:06:27;;;;;;;56.35;28.20;;;;;;;7.56;67.42;101376.00;5016095;28;20053;-73
2023/02/21 07:09:20;;;;;;;86.07;38.53;;;;;;;7.60;68.38;101379.78;5020089;28;20049;-74
2023/02/21 07:12:14;;;;;;;75.43;33.92;;;;;;;7.35;68.70;101370.97;5017229;28;20414;-73
2023/02/21 07:15:09;;;;;;;70.07;33.17;;;;;;;6.64;70.81;101390.09;5021278;28;20041;-73
2023/02/21 07:18:03;;;;;;;81.70;41.08;;;;;;;6.33;71.88;101387.41;5018477;28;20502;-73
2023/02/21 07:20:58;;;;;;;81.15;38.53;;;;;;;5.82;73.71;101386.53;5015789;28;20049;-73
2023/02/21 07:23:52;;;;;;;64.78;32.67;;;;;;;5.97;73.74;101396.56;5015314;28;20045;-72
2023/02/21 07:26:44;;;;;;;49.00;22.88;;;;;;;6.30;72.73;101406.03;5017040;28;20053;-72
2023/02/21 07:29:39;;;;;;;60.47;31.50;;;;;;;6.56;72.56;101406.84;5020765;28;20041;-72
2023/02/21 07:32:31;;;;;;;53.13;26.40;;;;;;;6.76;70.65;101404.94;5017846;28;20049;-73
2023/02/21 07:35:26;;;;;;;61.60;31.60;;;;;;;6.47;70.19;101409.28;5016215;28;20053;-73
2023/02/21 07:38:26;;;;;;;57.25;32.08;;;;;;;6.64;71.17;101409.00;5019537;28;20064;-72
2023/02/21 07:41:20;;;;;;;65.55;34.03;;;;;;;6.14;73.29;101409.81;5017119;28;20038;-74
2023/02/21 07:44:15;;;;;;;65.00;34.40;;;;;;;5.43;76.42;101409.63;5020601;28;20064;-73
2023/02/21 07:47:09;;;;;;;52.05;29.17;;;;;;;5.29;78.44;101408.44;5017696;28;20045;-74
2023/02/21 07:50:04;;;;;;;60.67;31.95;;;;;;;5.55;77.68;101402.91;5015686;28;20050;-74
2023/02/21 07:52:58;;;;;;;64.72;32.30;;;;;;;5.62;77.21;101402.66;5017106;28;20046;-74
2023/02/21 07:55:52;;;;;;;84.88;40.03;;;;;;;5.84;77.40;101407.84;5016684;28;20057;-74
2023/02/21 07:58:47;;;;;;;66.57;28.17;;;;;;;5.74;78.58;101408.63;5019671;28;20045;-74
2023/02/21 08:01:42;;;;;;;64.43;29.25;;;;;;;5.57;78.93;101411.56;5017299;28;20062;-75
2023/02/21 08:04:34;;;;;;;75.13;38.17;;;;;;;5.59;79.64;101411.25;5015142;28;20416;-73
2023/02/21 08:07:28;;;;;;;68.15;33.08;;;;;;;5.71;80.72;101414.56;5018692;28;20104;-77
2023/02/21 08:10:28;;;;;;;64.47;30.37;;;;;;;6.21;78.51;101410.34;5015942;28;20038;-77
2023/02/21 08:13:22;;;;;;;76.70;39.13;;;;;;;6.34;79.15;101415.25;5010869;28;20065;-77
2023/02/21 08:16:14;;;;;;;75.95;36.78;;;;;;;6.56;77.55;101401.44;5013150;28;20046;-77
2023/02/21 08:19:08;;;;;;;52.25;29.95;;;;;;;5.91;80.59;101408.41;5014001;28;20068;-77
2023/02/21 08:22:03;;;;;;;79.47;37.00;;;;;;;6.84;80.29;101411.69;5012658;28;20053;-77
2023/02/21 08:24:55;;;;;;;81.20;38.28;;;;;;;7.66;76.29;101411.16;5013582;28;20530;-77
2023/02/21 08:27:47;;;;;;;75.25;34.92;;;;;;;8.39;72.73;101405.00;5015397;28;20046;-77
2023/02/21 08:30:39;;;;;;;61.05;33.80;;;;;;;8.78;70.20;101404.94;5017518;28;20046;-74
2023/02/21 08:33:31;;;;;;;65.85;36.47;;;;;;;7.64;73.46;101407.91;5014828;28;20042;-74
2023/02/21 08:36:24;;;;;;;49.63;24.83;;;;;;;7.27;76.61;101407.50;5018718;28;20049;-74
2023/02/21 08:39:18;;;;;;;72.72;37.67;;;;;;;6.74;77.93;101419.81;5016091;28;20038;-75
2023/02/21 08:42:15;;;;;;;67.65;36.65;;;;;;;6.69;79.36;101423.34;5013377;28;20042;-75
2023/02/21 08:45:15;;;;;;;95.47;43.45;;;;;;;6.29;81.15;101420.63;5017231;28;20042;-74
2023/02/21 08:48:10;;;;;;;85.45;42.28;;;;;;;6.38;81.35;101421.72;5013143;28;20038;-74
2023/02/21 08:51:04;;;;;;;84.32;41.28;;;;;;;6.55;81.30;101419.56;5013056;28;20038;-74
2023/02/21 08:53:59;;;;;;;109.43;51.67;;;;;;;6.36;82.64;101423.88;5015946;28;20033;-74
2023/02/21 08:56:51;;;;;;;109.80;46.72;;;;;;;6.31;83.08;101416.56;5011947;28;20034;-74
2023/02/21 08:59:48;;;;;;;73.93;37.63;;;;;;;6.34;84.24;101420.63;5014260;28;20042;-74
2023/02/21 09:02:46;;;;;;;107.57;50.20;;;;;;;6.69;82.99;101417.94;5333703;23;20510;-74
2023/02/21 09:05:41;;;;;;;102.72;46.63;;;;;;;7.13;80.78;101423.50;5027309;28;20049;-73
2023/02/21 09:08:35;;;;;;;71.75;36.92;;;;;;;7.85;78.54;101421.31;5031430;28;20030;-73
2023/02/21 09:11:30;;;;;;;97.07;43.83;;;;;;;8.00;76.77;101423.94;5028322;28;20040;-72
2023/02/21 09:14:22;;;;;;;84.60;41.83;;;;;;;8.32;74.86;101412.66;5012035;28;20041;-75
2023/02/21 09:17:17;;;;;;;81.10;41.80;;;;;;;8.50;74.61;101412.75;5016652;28;20041;-75
2023/02/21 09:20:14;;;;;;;79.13;43.77;;;;;;;8.92;73.19;101420.25;5021935;28;20037;-75
2023/02/21 09:23:09;;;;;;;88.28;45.17;;;;;;;8.34;74.26;101416.69;5022814;28;20292;-75
2023/02/21 09:26:03;;;;;;;83.53;43.67;;;;;;;8.02;77.51;101419.06;5021851;28;20033;-75
2023/02/21 09:28:58;;;;;;;98.53;44.35;;;;;;;8.63;75.00;101419.44;5018622;28;20060;-75
2023/02/21 09:31:52;;;;;;;74.30;38.00;;;;;;;8.59;75.60;101421.09;5014673;28;20042;-75
2023/02/21 09:34:47;;;;;;;88.80;44.90;;;;;;;8.68;74.76;101424.00;5018048;28;20409;-74
2023/02/21 09:37:43;;;;;;;87.80;43.72;;;;;;;7.76;78.04;101417.59;5016296;28;20277;-75
2023/02/21 09:40:57;;;;;;;99.90;49.08;;;;;;;7.88;79.78;101418.03;5014127;28;20026;-74
2023/02/21 09:43:56;;;;;;;81.75;44.47;;;;;;;7.93;78.96;101420.72;5015374;28;20518;-75
2023/02/21 09:46:51;;;;;;;90.95;47.50;;;;;;;8.03;77.85;101409.81;5015718;28;20045;-75
2023/02/21 09:49:45;;;;;;;;;;;;;;;7.97;79.47;101416.38;5017753;28;20069;-75
2023/02/21 09:52:41;;;;;;;95.72;47.08;;;;;;;8.64;77.47;101409.38;5014321;28;19913;-75
2023/02/21 09:55:34;;;;;;;;;;;;;;;8.69;77.18;101414.75;5018528;28;20506;-75
2023/02/21 09:58:29;;;;;;;89.38;47.42;;;;;;;8.07;78.95;101416.31;5016075;28;19914;-74
2023/02/21 10:01:31;;;;;;;109.72;51.92;;;;;;;8.48;80.07;101425.78;5016930;28;20041;-76
2023/02/21 10:05:02;;;;;;;100.93;50.90;;;;;;;9.01;76.70;101421.22;4999889;28;20045;-76
2023/02/21 10:08:20;;;;;;;99.13;51.05;;;;;;;9.35;73.83;101415.69;4989915;28;20037;-75
2023/02/21 10:11:42;;;;;;;102.13;50.35;;;;;;;9.89;73.33;101411.75;5023092;28;20045;-75
2023/02/21 10:14:57;;;;;;;84.22;45.08;;;;;;;10.02;73.16;101418.34;5017595;28;20034;-75
2023/02/21 10:18:16;;;;;;;89.72;46.45;;;;;;;9.94;71.49;101405.41;5026578;28;20033;-75
2023/02/21 10:21:15;;;;;;;82.20;46.03;;;;;;;9.83;73.82;101415.63;5013153;28;20038;-75
2023/02/21 10:24:13;;;;;;;93.35;50.72;;;;;;;9.94;73.01;101406.22;4998969;28;20053;-74
2023/02/21 10:27:14;;;;;;;90.15;48.67;;;;;;;10.07;72.21;101410.91;5022408;28;20517;-75
2023/02/21 10:30:19;;;;;;;94.55;47.75;;;;;;;10.58;70.06;101410.94;5023106;28;20034;-75
2023/02/21 10:33:11;;;;;;;82.60;47.63;;;;;;;9.98;72.81;101412.69;5016268;28;20033;-76
2023/02/21 10:36:03;;;;;;;64.63;37.73;;;;;;;10.02;72.54;101397.41;5022629;28;20045;-75
2023/02/21 10:39:05;;;;;;;91.20;46.33;;;;;;;10.73;70.77;101407.16;5017704;28;20406;-75
2023/02/21 10:42:01;;;;;;;83.07;44.60;;;;;;;11.06;69.26;101416.09;5019640;28;20582;-75
2023/02/21 10:44:54;;;;;;;89.57;46.13;;;;;;;10.54;70.12;101395.53;5025332;28;20116;-74
2023/02/21 10:47:59;;;;;;;84.50;46.65;;;;;;;10.40;71.33;101400.94;5021891;28;20038;-74
2023/02/21 10:51:30;;;;;;;72.10;39.22;;;;;;;10.34;71.02;101406.75;5015818;28;20498;-74
2023/02/21 10:54:26;;;;;;;89.85;44.72;;;;;;;10.60;70.70;101402.50;4994427;28;20528;-74
2023/02/21 10:57:18;;;;;;;88.05;44.67;;;;;;;10.38;71.61;101394.16;5021469;28;20038;-74
2023/02/21 11:00:18;;;;;;;86.32;47.50;;;;;;;10.76;70.42;101398.41;5014906;28;20042;-76
2023/02/21 11:03:18;;;;;;;86.97;44.67;;;;;;;10.61;70.79;101394.06;5016224;28;20046;-78
2023/02/21 11:06:13;;;;;;;93.15;47.03;;;;;;;10.69;71.32;101395.25;5017783;28;20045;-75
2023/02/21 11:09:33;;;;;;;107.40;53.40;;;;;;;10.49;71.73;101374.66;5020360;28;20030;-76
2023/02/21 11:12:28;;;;;;;87.68;46.97;;;;;;;10.60;71.47;101383.47;5016586;28;20502;-75
2023/02/21 11:15:23;;;;;;;83.38;45.70;;;;;;;10.51;71.35;101382.53;5025383;28;20033;-75
2023/02/21 11:18:24;;;;;;;69.53;35.37;;;;;;;10.66;70.93;101383.09;5025099;28;20514;-74
2023/02/21 11:21:20;;;;;;;83.47;46.60;;;;;;;10.60;71.59;101375.31;5028511;28;20045;-75
2023/02/21 11:24:15;;;;;;;90.90;50.42;;;;;;;10.75;70.70;101366.88;5027632;28;20502;-75
2023/02/21 11:27:07;;;;;;;94.93;49.17;;;;;;;10.83;70.37;101363.44;5014260;28;20042;-75
2023/02/21 11:30:01;;;;;;;80.43;44.65;;;;;;;10.83;70.47;101357.19;5021711;28;20034;-75
2023/02/21 11:32:59;;;;;;;97.55;50.33;;;;;;;10.92;70.45;101361.63;5016803;28;20049;-75
2023/02/21 11:35:55;;;;;;;92.38;47.22;;;;;;;10.94;69.81;101351.25;5021058;28;20042;-75
2023/02/21 11:39:21;;;;;;;96.13;52.33;;;;;;;11.03;69.60;101345.91;5017697;28;20033;-75
2023/02/21 11:42:33;;;;;;;66.30;37.83;;;;;;;11.08;69.49;101337.66;5017664;28;20054;-75
2023/02/21 11:45:32;;;;;;;96.45;49.92;;;;;;;11.13;69.56;101332.09;5016874;28;20037;-75
2023/02/21 11:48:29;;;;;;;95.68;52.33;;;;;;;11.36;68.33;101333.00;5019653;28;20494;-75
2023/02/21 11:51:33;;;;;;;108.70;56.35;;;;;;;11.35;68.27;101323.22;5017448;28;20038;-75
2023/02/21 11:54:25;;;;;;;;;;;;;;;11.30;68.22;101320.59;5022031;28;20041;-75
2023/02/21 11:57:26;;;;;;;;;;;;;;;11.47;67.78;101310.69;5018723;28;19914;-75
2023/02/21 12:00:23;;;;;;;;;;;;;;;11.56;67.20;101308.84;5020793;28;20381;-75
2023/02/21 12:03:15;;;;;;;;;;;;;;;11.63;67.17;101302.16;5014945;28;19917;-74
2023/02/21 12:06:10;;;;;;;;;;;;;;;11.86;66.84;101301.91;5021260;28;19913;-75
2023/02/21 12:09:16;;;;;;;;;;;;;;;11.86;66.25;101303.81;5021384;28;19913;-75
2023/02/21 12:12:14;;;;;;;;;;;;;;;12.07;64.23;101295.97;5025114;28;19913;-75
2023/02/21 12:15:15;;;;;;;;;;;;;;;12.05;65.51;101295.44;5022337;28;19913;-75
2023/02/21 12:18:08;;;;;;;;;;;;;;;12.24;64.43;101287.91;5030803;28;19913;-75
2023/02/21 12:21:19;;;;;;;;;;;;;;;12.32;63.92;101287.94;5025812;28;19917;-75
2023/02/21 12:24:24;;;;;;;;;;;;;;;12.41;64.13;101277.06;5021094;28;19917;-75
2023/02/21 12:27:33;;;;;;;;;;;;;;;12.42;64.33;101274.03;5019882;28;20301;-75
2023/02/21 12:30:49;;;;;;;;;;;;;;;12.33;63.87;101273.19;5028907;28;19913;-75
2023/02/21 12:33:44;;;;;;;;;;;;;;;12.62;63.66;101267.22;5017829;28;20526;-75
2023/02/21 12:36:52;;;;;;;;;;;;;;;12.58;63.79;101274.41;5018256;28;19913;-75
2023/02/21 12:39:50;;;;;;;;;;;;;;;12.74;63.71;101261.97;5015441;28;19913;-75
2023/02/21 12:42:49;;;;;;;;;;;;;;;12.90;63.23;101261.53;5015657;28;20385;-75
2023/02/21 12:45:54;;;;;;;;;;;;;;;12.97;63.45;101261.84;5020616;28;19913;-75
2023/02/21 12:48:47;;;;;;;;;;;;;;;12.92;63.17;101260.06;5020507;28;19914;-75
2023/02/21 12:51:40;;;;;;;;;;;;;;;13.03;63.11;101255.13;5019133;28;20300;-75
2023/02/21 12:54:32;;;;;;;;;;;;;;;13.10;62.78;101247.28;5020314;28;19913;-75
2023/02/21 12:57:29;;;;;;;;;;;;;;;13.32;62.57;101243.63;5012620;28;19913;-76
2023/02/21 13:00:22;;;;;;;;;;;;;;;13.24;62.12;101237.84;5015181;28;19914;-75
2023/02/21 13:03:21;;;;;;;;;;;;;;;13.52;61.58;101235.59;5013624;28;19933;-74
2023/02/21 13:06:11;;;;;;;;;;;;;;;13.48;61.10;101229.16;5022368;28;20305;-75
2023/02/21 13:09:10;;;;;;;;;;;;;;;13.56;61.45;101227.56;5031015;28;19914;-75
2023/02/21 13:12:19;;;;;;;;;;;;;;;13.80;60.50;101224.31;5016790;28;20321;-74
2023/02/21 13:15:20;;;;;;;;;;;;;;;13.70;60.74;101218.06;5020577;28;19913;-75
2023/02/21 13:18:13;;;;;;;;;;;;;;;13.82;59.94;101211.13;5030303;28;19913;-74
2023/02/21 13:21:08;;;;;;;;;;;;;;;13.89;59.66;101216.91;5015721;28;20441;-76
2023/02/21 13:24:02;;;;;;;;;;;;;;;13.97;59.88;101205.94;5018600;28;19918;-75
2023/02/21 13:27:27;;;;;;;;;;;;;;;14.14;58.78;101208.63;5012862;28;19914;-75
2023/02/21 13:30:35;;;;;;;;;;;;;;;14.18;58.37;101197.84;5018860;28;19913;-76
2023/02/21 13:33:46;;;;;;;;;;;;;;;14.24;58.61;101203.94;5015737;28;20428;-75
2023/02/21 13:36:41;;;;;;;;;;;;;;;14.29;58.61;101193.63;5019908;28;20309;-75
2023/02/21 13:39:35;;;;;;;;;;;;;;;14.44;57.84;101184.06;5020003;28;20293;-76
2023/02/21 13:42:24;;;;;;;;;;;;;;;14.47;57.73;101180.69;5015293;28;19917;-76
2023/02/21 13:45:15;;;;;;;;;;;;;;;14.55;57.47;101174.38;5018159;28;19913;-75
2023/02/21 13:48:16;;;;;;;;;;;;;;;14.50;56.94;101167.16;5015173;28;19913;-75
2023/02/21 13:51:05;;;;;;;;;;;;;;;14.68;56.81;101167.06;5018294;28;19917;-75
2023/02/21 13:54:09;;;;;;;;;;;;;;;14.71;56.27;101160.91;5018504;28;19914;-75
2023/02/21 13:57:04;;;;;;;;;;;;;;;14.79;56.41;101157.31;5019250;28;19913;-75
2023/02/21 13:59:54;;;;;;;;;;;;;;;14.80;56.57;101147.97;5017018;28;20289;-75
2023/02/21 14:02:53;;;;;;;;;;;;;;;14.76;56.09;101152.50;5014238;28;19918;-75
2023/02/21 14:05:51;;;;;;;;;;;;;;;14.91;55.31;101149.19;5018435;28;20374;-75
2023/02/21 14:08:48;;;;;;;;;;;;;;;14.95;55.98;101144.63;5019432;28;20378;-75
2023/02/21 14:11:45;;;;;;;;;;;;;;;15.03;55.21;101137.50;5013133;28;19917;-75
2023/02/21 14:14:36;;;;;;;;;;;;;;;15.02;55.33;101144.09;5016739;28;19913;-75
2023/02/21 14:17:31;;;;;;;;;;;;;;;14.90;55.57;101139.34;5014797;28;19913;-75
2023/02/21 14:20:24;;;;;;;;;;;;;;;15.02;55.12;101133.94;5019484;28;19913;-75
2023/02/21 14:23:16;;;;;;;;;;;;;;;15.14;55.24;101128.50;5012913;28;20322;-75
2023/02/21 14:26:08;;;;;;;;;;;;;;;15.24;54.31;101130.84;5013197;28;20289;-76
2023/02/21 14:29:02;;;;;;;;;;;;;;;15.15;54.47;101130.13;5017317;28;19913;-75
2023/02/21 14:31:56;;;;;;;;;;;;;;;14.99;55.15;101124.44;5014406;28;19914;-75
2023/02/21 14:34:52;;;;;;;;;;;;;;;15.04;54.70;101137.13;5012846;28;20093;-75
2023/02/21 14:37:45;;;;;;;;;;;;;;;15.12;54.43;101130.81;5016138;28;19917;-75
2023/02/21 14:40:47;;;;;;;;;;;;;;;15.08;54.66;101129.88;5013813;28;19913;-75
2023/02/21 14:43:53;;;;;;;;;;;;;;;14.99;54.96;101129.13;5016385;28;19925;-75
2023/02/21 14:46:43;;;;;;;;;;;;;;;15.07;55.32;101132.94;5013000;28;19913;-75
2023/02/21 14:49:40;;;;;;;;;;;;;;;15.18;54.84;101131.41;5017889;28;19913;-76
2023/02/21 14:53:02;;;;;;;;;;;;;;;15.19;54.65;101128.31;5014994;28;19939;-75
2023/02/21 14:56:06;;;;;;;;;;;;;;;15.31;54.83;101125.63;4999011;28;19913;-75
2023/02/21 14:59:14;;;;;;;;;;;;;;;15.16;55.15;101134.47;5014805;28;19913;-75
2023/02/21 15:02:21;;;;;;;;;;;;;;;15.18;55.37;101134.94;5017937;28;19917;-75
2023/02/21 15:05:30;;;;;;;;;;;;;;;15.23;54.75;101129.25;5018443;28;20365;-75
2023/02/21 15:08:22;;;;;;;;;;;;;;;14.94;55.93;101121.09;5020672;28;19913;-75
2023/02/21 15:11:19;;;;;;;;;;;;;;;15.10;55.57;101124.03;5018413;28;19921;-75
2023/02/21 15:14:28;;;;;;;;;;;;;;;15.11;55.46;101118.25;5016663;28;20290;-75
2023/02/21 15:17:19;;;;;;;;;;;;;;;15.07;55.38;101116.50;5018998;28;19919;-75
2023/02/21 15:20:13;;;;;;;;;;;;;;;15.16;55.37;101117.22;5016902;28;19914;-75
2023/02/21 15:23:14;;;;;;;;;;;;;;;15.24;55.28;101108.91;5016065;28;19917;-75
2023/02/21 15:26:18;;;;;;;;;;;;;;;15.18;55.37;101118.50;5018043;28;19913;-75
2023/02/21 15:29:18;;;;;;;;;;;;;;;15.13;55.30;101113.25;5020530;28;20382;-75
2023/02/21 15:32:13;;;;;;;;;;;;;;;15.02;55.49;101113.97;5017960;28;19913;-75
2023/02/21 15:35:07;;;;;;;;;;;;;;;15.11;55.39;101115.50;5015553;28;19920;-75
2023/02/21 15:38:00;;;;;;;;;;;;;;;15.00;55.64;101114.31;5019486;28;19913;-75
2023/02/21 15:40:55;;;;;;;;;;;;;;;15.11;55.41;101112.75;5016962;28;20382;-75
2023/02/21 15:43:50;;;;;;;;;;;;;;;15.08;55.48;101112.63;5020429;28;20285;-75
2023/02/21 15:46:51;;;;;;;;;;;;;;;15.21;55.06;101115.09;5018090;28;19914;-75
2023/02/21 15:49:47;;;;;;;;;;;;;;;14.99;55.39;101112.69;5015699;28;19917;-76
2023/02/21 15:52:40;;;;;;;;;;;;;;;14.74;56.16;101117.25;5016721;28;19913;-76
2023/02/21 15:55:32;;;;;;;;;;;;;;;14.63;56.45;101110.53;5016438;28;19914;-75
2023/02/21 15:58:25;;;;;;;;;;;;;;;14.72;56.63;101115.97;5020083;28;19914;-75
2023/02/21 16:01:21;;;;;;;;;;;;;;;14.61;56.19;101112.03;5017558;28;19913;-75
2023/02/21 16:04:22;;;;;;;;;;;;;;;14.51;56.93;101111.28;5015179;28;20298;-75
2023/02/21 16:07:34;;;;;;;;;;;;;;;14.55;56.61;101116.88;5018464;28;20289;-75
2023/02/21 16:10:25;;;;;;;;;;;;;;;14.26;57.23;101114.94;5015492;28;19914;-75
2023/02/21 16:13:17;;;;;;;;;;;;;;;14.04;57.76;101112.47;5014415;28;20378;-75
2023/02/21 16:16:10;;;;;;;;;;;;;;;14.04;57.91;101120.66;5016650;28;19913;-75
2023/02/21 16:19:02;;;;;;;;;;;;;;;13.87;58.32;101116.06;5019749;28;19913;-75